Time;durP1;ratioP1;P1;durP2;ratioP2;P2;SDS_P1;SDS_P2;PMS_P1;PMS_P2;Temp;Humidity;BMP_temperature;BMP_pressure;BME280_temperature;BME280_humidity;BME280_pressure;Samples;Min_cycle;Max_cycle;Signal;HPM_P1;HPM_P2
2021/01/30 00:00:31;;;;;;;2.67;0.60;;;;;;;;;;4994177;28;20030;-80
2021/01/30 00:02:57;;;;;;;0.80;0.40;;;;;;;;;;4976708;28;20024;-73
2021/01/30 00:05:24;;;;;;;0.77;0.40;;;;;;;;;;4994291;28;20089;-73
2021/01/30 00:07:50;;;;;;;1.27;0.50;;;;;;;;;;4994556;28;20455;-79
2021/01/30 00:10:17;;;;;;;1.95;0.80;;;;;;;;;;4976727;28;20033;-73
2021/01/30 00:12:43;;;;;;;1.80;0.70;;;;;;;;;;4994183;28;20033;-74
2021/01/30 00:15:13;;;;;;;1.00;0.40;;;;;;;;;;4976673;28;20087;-79
2021/01/30 00:17:39;;;;;;;1.98;0.60;;;;;;;;;;4976592;28;20026;-73
2021/01/30 00:20:07;;;;;;;1.52;0.70;;;;;;;;;;4973152;28;20488;-73
2021/01/30 00:22:33;;;;;;;1.08;0.52;;;;;;;;;;4974390;28;20023;-79
2021/01/30 00:25:00;;;;;;;0.65;0.38;;;;;;;;;;4973235;28;20041;-74
2021/01/30 00:27:26;;;;;;;1.02;0.50;;;;;;;;;;4974400;28;20054;-73
2021/01/30 00:29:52;;;;;;;1.00;0.43;;;;;;;;;;4973092;28;20033;-79
2021/01/30 00:32:20;;;;;;;0.90;0.40;;;;;;;;;;4973113;28;20023;-73
2021/01/30 00:34:47;;;;;;;1.73;0.82;;;;;;;;;;4972908;28;20042;-73
2021/01/30 00:37:15;;;;;;;1.48;0.50;;;;;;;;;;4974331;28;20515;-73
2021/01/30 00:39:42;;;;;;;1.58;0.43;;;;;;;;;;4973057;28;20117;-73
2021/01/30 00:42:09;;;;;;;1.30;0.55;;;;;;;;;;4974477;28;20026;-74
2021/01/30 00:44:36;;;;;;;1.80;0.60;;;;;;;;;;4972923;28;20117;-74
2021/01/30 00:47:02;;;;;;;0.63;0.40;;;;;;;;;;4974257;28;20424;-74
2021/01/30 00:49:28;;;;;;;7.07;0.40;;;;;;;;;;4972982;28;20037;-81
2021/01/30 00:51:55;;;;;;;0.90;0.43;;;;;;;;;;4972666;28;20027;-73
2021/01/30 00:54:21;;;;;;;1.10;0.30;;;;;;;;;;4972824;28;20050;-81
2021/01/30 00:56:50;;;;;;;3.90;0.43;;;;;;;;;;4974524;28;20426;-80
2021/01/30 00:59:17;;;;;;;2.22;0.43;;;;;;;;;;4974258;28;20037;-73
2021/01/30 01:01:43;;;;;;;1.15;0.43;;;;;;;;;;4974773;28;20023;-73
2021/01/30 01:04:10;;;;;;;2.15;0.60;;;;;;;;;;4974182;28;20037;-74
2021/01/30 01:06:36;;;;;;;1.05;0.50;;;;;;;;;;4974218;28;20475;-73
2021/01/30 01:09:07;;;;;;;1.38;0.30;;;;;;;;;;4974414;28;20027;-81
2021/01/30 01:11:34;;;;;;;1.10;0.40;;;;;;;;;;4972843;28;20034;-73
2021/01/30 01:14:00;;;;;;;0.80;0.30;;;;;;;;;;4974359;28;20641;-73
2021/01/30 01:16:26;;;;;;;0.80;0.40;;;;;;;;;;4976817;28;20034;-80
2021/01/30 01:18:53;;;;;;;1.10;0.30;;;;;;;;;;4976816;28;20037;-79
2021/01/30 01:21:19;;;;;;;1.05;0.43;;;;;;;;;;4992321;28;20057;-73
2021/01/30 01:23:46;;;;;;;2.92;0.68;;;;;;;;;;4997139;28;20030;-73
2021/01/30 01:26:13;;;;;;;2.33;0.50;;;;;;;;;;4979557;28;20061;-73
2021/01/30 01:28:40;;;;;;;1.33;0.63;;;;;;;;;;4996939;28;20121;-73
2021/01/30 01:31:06;;;;;;;2.20;0.40;;;;;;;;;;4996719;28;20080;-74
2021/01/30 01:33:33;;;;;;;2.03;0.50;;;;;;;;;;4979267;28;20109;-78
2021/01/30 01:35:59;;;;;;;2.78;0.50;;;;;;;;;;4996960;28;20053;-73
2021/01/30 01:38:26;;;;;;;0.90;0.38;;;;;;;;;;4996693;28;20064;-73
2021/01/30 01:40:52;;;;;;;1.45;0.50;;;;;;;;;;4996488;28;20022;-73
2021/01/30 01:43:20;;;;;;;1.90;0.47;;;;;;;;;;4996680;28;20030;-73
2021/01/30 01:46:01;;;;;;;1.85;0.60;;;;;;;;;;4996537;28;20026;-73
2021/01/30 01:48:30;;;;;;;1.48;0.63;;;;;;;;;;4979158;28;20037;-73
2021/01/30 01:50:57;;;;;;;2.00;0.70;;;;;;;;;;4996543;28;20027;-73
2021/01/30 01:53:29;;;;;;;1.80;0.77;;;;;;;;;;4979018;28;20022;-73
2021/01/30 01:56:06;;;;;;;1.50;0.50;;;;;;;;;;4978911;28;20451;-73
2021/01/30 01:58:36;;;;;;;1.92;0.60;;;;;;;;;;4978969;28;20073;-73
2021/01/30 02:01:03;;;;;;;1.38;0.43;;;;;;;;;;4978695;28;20054;-73
2021/01/30 02:03:31;;;;;;;1.20;0.30;;;;;;;;;;4978993;28;20027;-80
2021/01/30 02:05:59;;;;;;;1.92;0.63;;;;;;;;;;4978788;28;20023;-80
2021/01/30 02:08:25;;;;;;;1.95;0.40;;;;;;;;;;4978943;28;20030;-73
2021/01/30 02:10:52;;;;;;;3.20;0.50;;;;;;;;;;4996878;28;20029;-73
2021/01/30 02:13:21;;;;;;;2.63;0.50;;;;;;;;;;4996277;28;20098;-73
2021/01/30 02:15:49;;;;;;;1.75;0.60;;;;;;;;;;4996705;28;20034;-73
2021/01/30 02:18:18;;;;;;;1.30;0.55;;;;;;;;;;4996222;28;20065;-73
2021/01/30 02:20:57;;;;;;;1.35;0.50;;;;;;;;;;4975055;28;20074;-73
2021/01/30 02:23:38;;;;;;;2.53;0.50;;;;;;;;;;4977047;28;20027;-73
2021/01/30 02:26:07;;;;;;;0.95;0.50;;;;;;;;;;4974785;28;20155;-73
2021/01/30 02:28:42;;;;;;;3.05;0.65;;;;;;;;;;4974561;28;20483;-73
2021/01/30 02:31:09;;;;;;;1.67;0.40;;;;;;;;;;4975203;28;20078;-73
2021/01/30 02:34:07;;;;;;;2.80;0.55;;;;;;;;;;4976283;28;20472;-73
2021/01/30 02:36:46;;;;;;;1.20;0.30;;;;;;;;;;4943189;28;20514;-74
2021/01/30 02:39:21;;;;;;;1.52;0.63;;;;;;;;;;4975091;28;20035;-81
2021/01/30 02:41:53;;;;;;;0.95;0.47;;;;;;;;;;4974784;28;20027;-73
2021/01/30 02:44:20;;;;;;;1.75;0.60;;;;;;;;;;4974855;28;20030;-73
2021/01/30 02:46:49;;;;;;;1.85;0.50;;;;;;;;;;4976559;28;20475;-73
2021/01/30 02:49:18;;;;;;;1.90;0.60;;;;;;;;;;4974746;28;20031;-73
2021/01/30 02:51:46;;;;;;;3.83;1.25;;;;;;;;;;4974548;28;20395;-73
2021/01/30 02:54:13;;;;;;;2.90;0.65;;;;;;;;;;4974685;28;20031;-77
2021/01/30 02:56:40;;;;;;;1.95;0.80;;;;;;;;;;4975875;28;20046;-72
2021/01/30 02:59:08;;;;;;;2.67;0.30;;;;;;;;;;4975923;28;20085;-73
2021/01/30 03:01:35;;;;;;;0.68;0.30;;;;;;;;;;4974569;28;20035;-72
2021/01/30 03:04:02;;;;;;;2.20;0.75;;;;;;;;;;4974640;28;20031;-73
2021/01/30 03:06:34;;;;;;;0.70;0.40;;;;;;;;;;4975780;28;20023;-71
2021/01/30 03:09:12;;;;;;;1.23;0.40;;;;;;;;;;4974494;28;20531;-72
2021/01/30 03:11:43;;;;;;;5.00;0.82;;;;;;;;;;4976254;28;20023;-78
2021/01/30 03:14:21;;;;;;;1.55;0.45;;;;;;;;;;4976088;28;20066;-78
2021/01/30 03:16:48;;;;;;;1.48;0.57;;;;;;;;;;4976118;28;20035;-78
2021/01/30 03:19:28;;;;;;;1.30;0.43;;;;;;;;;;4975486;28;20487;-78
2021/01/30 03:22:00;;;;;;;3.08;0.50;;;;;;;;;;4994936;28;20415;-71
2021/01/30 03:24:27;;;;;;;6.47;1.90;;;;;;;;;;4994796;28;20089;-76
2021/01/30 03:26:53;;;;;;;16.50;3.58;;;;;;;;;;4994842;28;20023;-80
2021/01/30 03:29:20;;;;;;;10.68;3.95;;;;;;;;;;4977274;28;20030;-72
2021/01/30 03:31:47;;;;;;;15.80;4.00;;;;;;;;;;4977230;28;20471;-79
2021/01/30 03:34:14;;;;;;;7.15;2.40;;;;;;;;;;4977292;28;20035;-78
2021/01/30 03:36:41;;;;;;;7.57;1.23;;;;;;;;;;4977202;28;20027;-78
2021/01/30 03:39:12;;;;;;;2.97;0.93;;;;;;;;;;4976885;28;20034;-80
2021/01/30 03:41:38;;;;;;;2.47;0.50;;;;;;;;;;4977072;28;20018;-80
2021/01/30 03:44:05;;;;;;;0.43;0.22;;;;;;;;;;4994466;28;20085;-79
2021/01/30 03:46:31;;;;;;;2.60;0.40;;;;;;;;;;4977076;28;20085;-73
2021/01/30 03:48:57;;;;;;;2.40;0.68;;;;;;;;;;4994793;28;20426;-80
2021/01/30 03:51:24;;;;;;;2.10;0.45;;;;;;;;;;4977106;28;20026;-74
2021/01/30 03:53:50;;;;;;;1.48;0.50;;;;;;;;;;4994463;28;20041;-81
2021/01/30 03:56:16;;;;;;;1.75;0.40;;;;;;;;;;4977055;28;20085;-79
2021/01/30 03:58:45;;;;;;;1.27;0.40;;;;;;;;;;4977114;28;20062;-79
2021/01/30 04:01:12;;;;;;;2.83;0.50;;;;;;;;;;4976835;28;20022;-79
2021/01/30 04:03:38;;;;;;;2.92;0.38;;;;;;;;;;4994299;28;20027;-79
2021/01/30 04:06:04;;;;;;;1.15;0.50;;;;;;;;;;4994145;28;20029;-79
2021/01/30 04:08:31;;;;;;;1.58;0.32;;;;;;;;;;4994069;28;20058;-73
2021/01/30 04:10:57;;;;;;;3.72;0.50;;;;;;;;;;4994084;28;20026;-75
2021/01/30 04:13:23;;;;;;;1.52;0.50;;;;;;;;;;4994514;28;20153;-75
2021/01/30 04:15:50;;;;;;;2.28;0.73;;;;;;;;;;4993905;28;20041;-80
2021/01/30 04:18:16;;;;;;;1.98;0.65;;;;;;;;;;4994482;28;20019;-78
2021/01/30 04:20:42;;;;;;;2.53;0.77;;;;;;;;;;4973126;28;20141;-81
2021/01/30 04:23:10;;;;;;;2.20;0.65;;;;;;;;;;4975038;28;20027;-79
2021/01/30 04:25:37;;;;;;;7.10;1.20;;;;;;;;;;4973088;28;20122;-81
2021/01/30 04:28:04;;;;;;;1.55;0.52;;;;;;;;;;4974450;28;20029;-81
2021/01/30 04:30:31;;;;;;;3.88;0.85;;;;;;;;;;4974288;28;20037;-81
2021/01/30 04:32:57;;;;;;;2.55;0.90;;;;;;;;;;4973157;28;20479;-80
2021/01/30 04:35:26;;;;;;;2.25;0.80;;;;;;;;;;4974487;28;20554;-74
2021/01/30 04:37:52;;;;;;;2.58;1.00;;;;;;;;;;4973170;28;20023;-74
2021/01/30 04:40:24;;;;;;;1.60;0.88;;;;;;;;;;4974507;28;20030;-73
2021/01/30 04:42:54;;;;;;;2.75;1.05;;;;;;;;;;4974388;28;20034;-74
2021/01/30 04:45:30;;;;;;;2.28;0.82;;;;;;;;;;4973271;28;20031;-80
2021/01/30 04:48:14;;;;;;;1.73;0.75;;;;;;;;;;4973299;28;20027;-80
2021/01/30 04:50:54;;;;;;;4.60;0.60;;;;;;;;;;4976611;28;20061;-79
2021/01/30 04:53:44;;;;;;;2.63;0.40;;;;;;;;;;4976973;28;20030;-79
2021/01/30 04:56:36;;;;;;;0.80;0.40;;;;;;;;;;4977600;28;20387;-79
2021/01/30 04:59:06;;;;;;;0.93;0.43;;;;;;;;;;4975679;28;20067;-73
2021/01/30 05:01:39;;;;;;;0.57;0.20;;;;;;;;;;4976829;28;20033;-78
2021/01/30 05:04:10;;;;;;;1.08;0.30;;;;;;;;;;4978019;28;20035;-73
2021/01/30 05:06:36;;;;;;;1.13;0.35;;;;;;;;;;4976824;28;20357;-72
2021/01/30 05:09:06;;;;;;;0.60;0.30;;;;;;;;;;4976809;28;20034;-73
2021/01/30 05:11:34;;;;;;;0.95;0.20;;;;;;;;;;4976864;28;20031;-79
2021/01/30 05:14:06;;;;;;;2.30;0.30;;;;;;;;;;4976870;28;20074;-81
2021/01/30 05:16:34;;;;;;;1.30;0.40;;;;;;;;;;4976693;28;20035;-81
2021/01/30 05:19:09;;;;;;;0.50;0.30;;;;;;;;;;4976603;28;20122;-80
2021/01/30 05:21:47;;;;;;;1.40;0.52;;;;;;;;;;4994523;28;20546;-79
2021/01/30 05:24:14;;;;;;;0.98;0.50;;;;;;;;;;4979788;28;20030;-72
2021/01/30 05:27:19;;;;;;;0.60;0.30;;;;;;;;;;4979633;28;20098;-79
2021/01/30 05:29:45;;;;;;;;;;;;;;;;;;4997916;28;20483;-78
2021/01/30 05:32:25;;;;;;;0.82;0.40;;;;;;;;;;4979531;28;19905;-80
2021/01/30 05:35:01;;;;;;;0.73;0.40;;;;;;;;;;4980157;28;20038;-79
2021/01/30 05:37:34;;;;;;;0.60;0.30;;;;;;;;;;4979414;28;20390;-77
2021/01/30 05:40:18;;;;;;;0.50;0.20;;;;;;;;;;4979574;28;20022;-78
2021/01/30 05:42:45;;;;;;;1.63;0.40;;;;;;;;;;4996695;28;20117;-77
2021/01/30 05:45:31;;;;;;;0.70;0.20;;;;;;;;;;4996617;28;20030;-80
2021/01/30 05:47:58;;;;;;;1.15;0.47;;;;;;;;;;4979582;28;20026;-78
2021/01/30 05:50:59;;;;;;;0.50;0.30;;;;;;;;;;4979729;28;20042;-78
2021/01/30 05:53:26;;;;;;;0.50;0.30;;;;;;;;;;4883631;29;20123;-78
2021/01/30 05:55:54;;;;;;;1.17;0.38;;;;;;;;;;4972408;28;20042;-79
2021/01/30 05:58:22;;;;;;;1.00;0.43;;;;;;;;;;4983502;28;20372;-78
2021/01/30 06:00:49;;;;;;;0.45;0.30;;;;;;;;;;4979014;28;20031;-79
2021/01/30 06:03:22;;;;;;;1.58;0.40;;;;;;;;;;4998026;28;20525;-79
2021/01/30 06:05:49;;;;;;;0.75;0.30;;;;;;;;;;4979305;28;20057;-79
2021/01/30 06:08:16;;;;;;;0.70;0.30;;;;;;;;;;4996768;28;20479;-72
2021/01/30 06:10:43;;;;;;;0.40;0.20;;;;;;;;;;4996590;28;20077;-79
2021/01/30 06:13:09;;;;;;;0.80;0.30;;;;;;;;;;4979023;28;20057;-73
2021/01/30 06:15:37;;;;;;;1.77;0.47;;;;;;;;;;4996383;28;20391;-79
2021/01/30 06:18:30;;;;;;;0.77;0.40;;;;;;;;;;4978864;28;20026;-77
2021/01/30 06:21:06;;;;;;;0.52;0.30;;;;;;;;;;4971548;28;20090;-78
2021/01/30 06:23:33;;;;;;;0.70;0.20;;;;;;;;;;4975505;28;20480;-71
2021/01/30 06:26:11;;;;;;;0.50;0.20;;;;;;;;;;4975339;28;20495;-79
2021/01/30 06:28:39;;;;;;;0.75;0.30;;;;;;;;;;4974902;28;20050;-69
2021/01/30 06:31:10;;;;;;;0.60;0.20;;;;;;;;;;4975862;28;20125;-72
2021/01/30 06:33:42;;;;;;;0.40;0.20;;;;;;;;;;4975906;28;20130;-76
2021/01/30 06:36:10;;;;;;;0.60;0.20;;;;;;;;;;4976141;28;20148;-76
2021/01/30 06:38:41;;;;;;;0.38;0.15;;;;;;;;;;4974790;28;20077;-69
2021/01/30 06:41:16;;;;;;;0.90;0.30;;;;;;;;;;4955530;29;20035;-69
2021/01/30 06:43:44;;;;;;;0.70;0.30;;;;;;;;;;4957445;29;20020;-70
2021/01/30 06:46:15;;;;;;;2.25;0.35;;;;;;;;;;4956836;29;20061;-76
2021/01/30 06:48:44;;;;;;;0.35;0.20;;;;;;;;;;4955474;29;20034;-77
2021/01/30 06:51:31;;;;;;;0.60;0.30;;;;;;;;;;4955386;29;20495;-76
2021/01/30 06:54:16;;;;;;;0.10;0.10;;;;;;;;;;4955387;29;20037;-76
2021/01/30 06:56:43;;;;;;;2.58;0.20;;;;;;;;;;4973147;28;20503;-73
2021/01/30 06:59:14;;;;;;;0.20;0.10;;;;;;;;;;4975856;28;20023;-70
2021/01/30 07:01:44;;;;;;;0.40;0.20;;;;;;;;;;4974537;28;20033;-75
2021/01/30 07:04:29;;;;;;;0.47;0.20;;;;;;;;;;4974403;28;20497;-76
2021/01/30 07:07:05;;;;;;;0.60;0.38;;;;;;;;;;4974487;28;20035;-76
2021/01/30 07:09:40;;;;;;;0.22;0.13;;;;;;;;;;4974471;28;20038;-78
2021/01/30 07:12:07;;;;;;;0.25;0.10;;;;;;;;;;4974311;28;20027;-72
2021/01/30 07:14:36;;;;;;;0.30;0.10;;;;;;;;;;4975182;28;20039;-72
2021/01/30 07:17:12;;;;;;;0.10;0.10;;;;;;;;;;4975220;28;20062;-84
2021/01/30 07:19:38;;;;;;;1.15;0.20;;;;;;;;;;4975400;28;20037;-79
2021/01/30 07:22:10;;;;;;;0.38;0.10;;;;;;;;;;4995438;28;20049;-80
2021/01/30 07:24:42;;;;;;;0.22;0.10;;;;;;;;;;4977395;28;20026;-71
2021/01/30 07:27:30;;;;;;;0.95;0.40;;;;;;;;;;4977516;28;20026;-79
2021/01/30 07:30:06;;;;;;;0.60;0.20;;;;;;;;;;4977320;28;20437;-78
2021/01/30 07:32:35;;;;;;;0.50;0.20;;;;;;;;;;4977080;28;20371;-80
2021/01/30 07:35:10;;;;;;;0.95;0.43;;;;;;;;;;4977158;28;20046;-72
2021/01/30 07:37:42;;;;;;;0.60;0.20;;;;;;;;;;4977395;28;20391;-82
2021/01/30 07:40:11;;;;;;;0.77;0.20;;;;;;;;;;4977444;28;20391;-79
2021/01/30 07:42:49;;;;;;;0.38;0.10;;;;;;;;;;4977279;28;20517;-75
2021/01/30 07:45:30;;;;;;;0.65;0.30;;;;;;;;;;4977201;28;20483;-82
2021/01/30 07:48:11;;;;;;;0.25;0.10;;;;;;;;;;4977201;28;20054;-80
2021/01/30 07:50:39;;;;;;;0.50;0.20;;;;;;;;;;4977135;28;20069;-76
2021/01/30 07:53:07;;;;;;;1.35;0.20;;;;;;;;;;4994908;28;20023;-70
2021/01/30 07:55:35;;;;;;;0.57;0.20;;;;;;;;;;4976897;28;20514;-74
2021/01/30 07:58:13;;;;;;;0.65;0.30;;;;;;;;;;4976918;28;20420;-79
2021/01/30 08:00:51;;;;;;;0.82;0.30;;;;;;;;;;4976834;28;20030;-74
2021/01/30 08:03:36;;;;;;;1.95;0.77;;;;;;;;;;4976818;28;20088;-75
2021/01/30 08:06:06;;;;;;;0.45;0.10;;;;;;;;;;4976834;28;20030;-75
2021/01/30 08:08:40;;;;;;;1.75;0.63;;;;;;;;;;4994304;28;20027;-78
2021/01/30 08:11:18;;;;;;;0.63;0.20;;;;;;;;;;4976733;28;20507;-77
2021/01/30 08:13:51;;;;;;;0.98;0.43;;;;;;;;;;4976755;28;20026;-78
2021/01/30 08:16:17;;;;;;;0.90;0.30;;;;;;;;;;4976664;28;20034;-76
2021/01/30 08:18:47;;;;;;;1.63;0.63;;;;;;;;;;4994196;28;20066;-76
2021/01/30 08:21:22;;;;;;;1.02;0.45;;;;;;;;;;4976601;28;20062;-77
2021/01/30 08:23:51;;;;;;;1.13;0.77;;;;;;;;;;4976545;28;20467;-79
2021/01/30 08:26:24;;;;;;;1.38;0.45;;;;;;;;;;4975875;28;20018;-78
2021/01/30 08:28:53;;;;;;;3.28;1.00;;;;;;;;;;4976666;28;20108;-60
2021/01/30 08:31:32;;;;;;;3.42;0.70;;;;;;;;;;4994408;28;20031;-50
2021/01/30 08:34:04;;;;;;;10.23;2.65;;;;;;;;;;4976389;28;20034;-58
2021/01/30 08:36:32;;;;;;;1.25;0.30;;;;;;;;;;4976061;28;20034;-55
2021/01/30 08:39:05;;;;;;;2.90;0.82;;;;;;;;;;4976218;28;20019;-58
2021/01/30 08:41:43;;;;;;;2.13;1.17;;;;;;;;;;4975729;28;20038;-51
2021/01/30 08:44:19;;;;;;;1.17;0.70;;;;;;;;;;4975977;28;20069;-58
2021/01/30 08:46:45;;;;;;;0.85;0.43;;;;;;;;;;4976262;28;20031;-53
2021/01/30 08:49:14;;;;;;;1.58;0.60;;;;;;;;;;4976096;28;20062;-54
2021/01/30 08:51:44;;;;;;;1.02;0.50;;;;;;;;;;4975535;28;20034;-57
2021/01/30 08:54:28;;;;;;;1.38;0.70;;;;;;;;;;4976245;28;20064;-54
2021/01/30 08:56:54;;;;;;;1.52;0.40;;;;;;;;;;4976094;28;20041;-59
2021/01/30 08:59:39;;;;;;;3.05;0.60;;;;;;;;;;4976117;28;20029;-56
2021/01/30 09:02:05;;;;;;;1.13;0.40;;;;;;;;;;4976009;28;20030;-57
2021/01/30 09:04:43;;;;;;;0.82;0.20;;;;;;;;;;4993871;28;20029;-57
2021/01/30 09:07:15;;;;;;;1.17;0.40;;;;;;;;;;4994119;28;20033;-57
2021/01/30 09:10:01;;;;;;;0.47;0.20;;;;;;;;;;4976130;28;20034;-58
2021/01/30 09:12:45;;;;;;;0.57;0.20;;;;;;;;;;4993451;28;20045;-57
2021/01/30 09:15:32;;;;;;;0.35;0.10;;;;;;;;;;4975886;28;20038;-58
2021/01/30 09:17:58;;;;;;;0.98;0.20;;;;;;;;;;4993485;28;20064;-58
2021/01/30 09:20:26;;;;;;;0.22;0.10;;;;;;;;;;4993099;28;20066;-58
2021/01/30 09:22:56;;;;;;;1.52;0.30;;;;;;;;;;4976087;28;20031;-58
2021/01/30 09:25:29;;;;;;;1.80;0.30;;;;;;;;;;4993391;28;20026;-54
2021/01/30 09:27:55;;;;;;;;;;;;;;;;;;4994192;28;20027;-51
2021/01/30 09:30:27;;;;;;;0.63;0.22;;;;;;;;;;4993621;28;20317;-51
2021/01/30 09:32:53;;;;;;;0.43;0.13;;;;;;;;;;4975961;28;20080;-56
2021/01/30 09:35:22;;;;;;;0.30;0.10;;;;;;;;;;4975840;28;20034;-51
2021/01/30 09:37:49;;;;;;;2.58;0.10;;;;;;;;;;4996557;28;20366;-50
2021/01/30 09:40:24;;;;;;;0.77;0.20;;;;;;;;;;4997242;28;20395;-53
2021/01/30 09:42:56;;;;;;;0.50;0.20;;;;;;;;;;4979284;28;20026;-54
2021/01/30 09:45:24;;;;;;;1.10;0.40;;;;;;;;;;4979431;28;20072;-51
2021/01/30 09:47:52;;;;;;;0.52;0.15;;;;;;;;;;4996638;28;20038;-50
2021/01/30 09:50:21;;;;;;;0.88;0.22;;;;;;;;;;4996930;28;20328;-79
2021/01/30 09:52:52;;;;;;;0.30;0.10;;;;;;;;;;4978995;28;20022;-78
2021/01/30 09:55:20;;;;;;;0.90;0.20;;;;;;;;;;4979412;28;20500;-81
2021/01/30 09:57:47;;;;;;;0.70;0.20;;;;;;;;;;4980096;28;20093;-85
2021/01/30 10:00:16;;;;;;;0.20;0.10;;;;;;;;;;4996814;28;20237;-75
2021/01/30 10:02:42;;;;;;;0.57;0.13;;;;;;;;;;4996775;28;20026;-85
2021/01/30 10:05:10;;;;;;;0.20;0.10;;;;;;;;;;4978983;28;20057;-80
2021/01/30 10:07:37;;;;;;;0.30;0.10;;;;;;;;;;4979165;28;20402;-74
2021/01/30 10:10:27;;;;;;;1.65;0.28;;;;;;;;;;4996551;28;20105;-74
2021/01/30 10:12:54;;;;;;;0.20;0.10;;;;;;;;;;4978864;28;20019;-75
2021/01/30 10:15:47;;;;;;;0.22;0.10;;;;;;;;;;4996354;28;20060;-84
2021/01/30 10:18:19;;;;;;;0.60;0.20;;;;;;;;;;5008452;28;20581;-82
2021/01/30 10:20:50;;;;;;;0.65;0.20;;;;;;;;;;4965803;28;20306;-84
2021/01/30 10:23:53;;;;;;;0.30;0.10;;;;;;;;;;4956548;29;20559;-84
2021/01/30 10:26:21;;;;;;;0.80;0.20;;;;;;;;;;4947368;28;20519;-75
2021/01/30 10:28:53;;;;;;;1.70;0.10;;;;;;;;;;4956082;29;20032;-75
2021/01/30 10:31:22;;;;;;;0.60;0.20;;;;;;;;;;4958343;29;20034;-83
2021/01/30 10:33:59;;;;;;;0.50;0.10;;;;;;;;;;4956819;29;20472;-85
2021/01/30 10:36:26;;;;;;;0.20;0.10;;;;;;;;;;4956821;29;20389;-74
2021/01/30 10:38:53;;;;;;;0.40;0.10;;;;;;;;;;4958073;29;20027;-75
2021/01/30 10:41:21;;;;;;;0.25;0.05;;;;;;;;;;4956027;29;20090;-79
2021/01/30 10:43:47;;;;;;;0.70;0.20;;;;;;;;;;4959221;29;20027;-77
2021/01/30 10:46:40;;;;;;;0.70;0.20;;;;;;;;;;4955087;29;20078;-80
2021/01/30 10:49:26;;;;;;;0.63;0.20;;;;;;;;;;4950870;28;20102;-80
2021/01/30 10:51:59;;;;;;;0.35;0.10;;;;;;;;;;4956181;29;20054;-76
2021/01/30 10:54:25;;;;;;;1.02;0.30;;;;;;;;;;4955109;29;20046;-74
2021/01/30 10:57:20;;;;;;;0.90;0.20;;;;;;;;;;4953880;29;20035;-72
2021/01/30 11:00:02;;;;;;;0.60;0.20;;;;;;;;;;4938865;28;20071;-73
2021/01/30 11:02:28;;;;;;;0.65;0.17;;;;;;;;;;4955194;29;20027;-72
2021/01/30 11:05:20;;;;;;;1.52;0.25;;;;;;;;;;4972885;28;20030;-71
2021/01/30 11:08:05;;;;;;;0.40;0.10;;;;;;;;;;4971888;28;20043;-71
2021/01/30 11:10:42;;;;;;;0.90;0.20;;;;;;;;;;4974961;28;20373;-73
2021/01/30 11:13:10;;;;;;;0.50;0.20;;;;;;;;;;4974195;28;20488;-71
2021/01/30 11:15:41;;;;;;;0.90;0.20;;;;;;;;;;4968202;28;20129;-71
2021/01/30 11:18:31;;;;;;;0.30;0.20;;;;;;;;;;4954921;29;20110;-73
2021/01/30 11:20:58;;;;;;;2.33;0.30;;;;;;;;;;4966947;28;20558;-78
2021/01/30 11:23:30;;;;;;;0.40;0.20;;;;;;;;;;4977507;28;20053;-76
2021/01/30 11:25:56;;;;;;;1.85;0.30;;;;;;;;;;4994800;28;20364;-72
2021/01/30 11:28:41;;;;;;;2.53;0.40;;;;;;;;;;4977403;28;20116;-73
2021/01/30 11:31:09;;;;;;;0.77;0.10;;;;;;;;;;4994703;28;20044;-73
2021/01/30 11:33:35;;;;;;;3.95;0.40;;;;;;;;;;4994476;28;20026;-72
2021/01/30 11:36:02;;;;;;;1.13;0.35;;;;;;;;;;4994115;28;20044;-72
2021/01/30 11:38:29;;;;;;;1.58;0.30;;;;;;;;;;4977198;28;20034;-74
2021/01/30 11:40:59;;;;;;;1.20;0.28;;;;;;;;;;4994442;28;20038;-72
2021/01/30 11:43:25;;;;;;;1.65;0.28;;;;;;;;;;4994545;28;20034;-73
2021/01/30 11:45:52;;;;;;;1.55;0.30;;;;;;;;;;4976719;28;20033;-72
2021/01/30 11:48:18;;;;;;;0.85;0.40;;;;;;;;;;4993963;28;20026;-74
2021/01/30 11:50:46;;;;;;;1.10;0.40;;;;;;;;;;4976782;28;20065;-75
2021/01/30 11:53:18;;;;;;;0.47;0.20;;;;;;;;;;4991384;28;20113;-73
2021/01/30 11:55:44;;;;;;;2.20;0.60;;;;;;;;;;5013931;28;20042;-72
2021/01/30 11:58:11;;;;;;;1.10;0.38;;;;;;;;;;5013909;28;20033;-72
2021/01/30 12:00:37;;;;;;;1.70;0.60;;;;;;;;;;5013788;28;20038;-73
2021/01/30 12:03:03;;;;;;;2.65;0.63;;;;;;;;;;4996013;28;20026;-73
2021/01/30 12:05:30;;;;;;;3.13;1.10;;;;;;;;;;4996163;28;20037;-73
2021/01/30 12:07:56;;;;;;;0.55;0.17;;;;;;;;;;4996601;28;20037;-73
2021/01/30 12:10:23;;;;;;;0.52;0.20;;;;;;;;;;5013932;28;20033;-73
2021/01/30 12:12:49;;;;;;;1.30;0.28;;;;;;;;;;4996095;28;20022;-73
2021/01/30 12:15:16;;;;;;;0.60;0.20;;;;;;;;;;4995996;28;20038;-73
2021/01/30 12:17:42;;;;;;;0.38;0.10;;;;;;;;;;5013677;28;20026;-73
2021/01/30 12:20:13;;;;;;;4.72;0.32;;;;;;;;;;4995812;28;20057;-73
2021/01/30 12:22:39;;;;;;;1.45;0.43;;;;;;;;;;5013581;28;20021;-74
2021/01/30 12:25:06;;;;;;;1.27;0.20;;;;;;;;;;4995820;28;20057;-73
2021/01/30 12:27:32;;;;;;;2.08;0.60;;;;;;;;;;5013507;28;20030;-73
2021/01/30 12:29:58;;;;;;;3.85;1.10;;;;;;;;;;4995879;28;20026;-73
2021/01/30 12:32:24;;;;;;;2.83;0.70;;;;;;;;;;4995371;28;20095;-73
2021/01/30 12:34:50;;;;;;;3.25;0.70;;;;;;;;;;4995435;28;20038;-73
2021/01/30 12:37:16;;;;;;;4.25;1.20;;;;;;;;;;4995780;28;20077;-72
2021/01/30 12:39:43;;;;;;;2.13;0.40;;;;;;;;;;4995683;28;20030;-72
2021/01/30 12:42:09;;;;;;;1.00;0.40;;;;;;;;;;4995738;28;20036;-73
2021/01/30 12:44:35;;;;;;;1.05;0.47;;;;;;;;;;4986760;28;20471;-73
2021/01/30 12:47:02;;;;;;;1.90;0.57;;;;;;;;;;4993091;28;20034;-73
2021/01/30 12:49:28;;;;;;;1.48;0.45;;;;;;;;;;4975708;28;20379;-72
2021/01/30 12:51:54;;;;;;;2.00;0.60;;;;;;;;;;4974984;28;20031;-73
2021/01/30 12:54:22;;;;;;;2.13;0.43;;;;;;;;;;4993051;28;20037;-74
2021/01/30 12:56:48;;;;;;;2.42;0.50;;;;;;;;;;4993579;28;20550;-73
2021/01/30 12:59:15;;;;;;;1.63;0.40;;;;;;;;;;4975735;28;20125;-73
2021/01/30 13:01:41;;;;;;;1.23;0.40;;;;;;;;;;4976050;28;20054;-73
2021/01/30 13:04:07;;;;;;;0.90;0.20;;;;;;;;;;4975998;28;20026;-73
2021/01/30 13:06:33;;;;;;;1.75;0.60;;;;;;;;;;4976109;28;20506;-73
2021/01/30 13:08:59;;;;;;;3.25;0.85;;;;;;;;;;4975771;28;20032;-74
2021/01/30 13:11:26;;;;;;;4.53;0.70;;;;;;;;;;4994794;28;20041;-75
2021/01/30 13:13:52;;;;;;;1.10;0.38;;;;;;;;;;4979594;28;20022;-74
2021/01/30 13:16:18;;;;;;;1.52;0.50;;;;;;;;;;4996448;28;20088;-74
2021/01/30 13:18:44;;;;;;;1.15;0.47;;;;;;;;;;4979755;28;20026;-73
2021/01/30 13:21:10;;;;;;;1.60;0.47;;;;;;;;;;4979459;28;20061;-73
2021/01/30 13:23:37;;;;;;;1.35;0.50;;;;;;;;;;4997360;28;20130;-73
2021/01/30 13:26:04;;;;;;;1.10;0.50;;;;;;;;;;4997355;28;20022;-72
2021/01/30 13:28:31;;;;;;;1.40;0.50;;;;;;;;;;4979527;28;20034;-73
2021/01/30 13:30:58;;;;;;;0.80;0.40;;;;;;;;;;4997014;28;20050;-74
2021/01/30 13:33:24;;;;;;;1.75;0.70;;;;;;;;;;4997336;28;20033;-74
2021/01/30 13:35:50;;;;;;;1.02;0.47;;;;;;;;;;4997141;28;20034;-73
2021/01/30 13:38:16;;;;;;;0.95;0.40;;;;;;;;;;4996770;28;20030;-75
2021/01/30 13:40:42;;;;;;;1.10;0.50;;;;;;;;;;4978994;28;20022;-74
2021/01/30 13:43:09;;;;;;;0.52;0.28;;;;;;;;;;4996078;28;20026;-73
2021/01/30 13:45:35;;;;;;;1.85;0.50;;;;;;;;;;4995802;28;20034;-73
2021/01/30 13:48:01;;;;;;;0.63;0.30;;;;;;;;;;4996717;28;20027;-73
2021/01/30 13:50:28;;;;;;;1.38;0.47;;;;;;;;;;4995572;28;20479;-72
2021/01/30 13:52:54;;;;;;;7.63;1.20;;;;;;;;;;4978264;28;20033;-73
2021/01/30 13:55:21;;;;;;;2.17;0.82;;;;;;;;;;4996106;28;20419;-73
2021/01/30 13:57:47;;;;;;;1.75;0.70;;;;;;;;;;4978140;28;20026;-73
2021/01/30 14:00:15;;;;;;;0.98;0.40;;;;;;;;;;4978179;28;20444;-75
2021/01/30 14:02:41;;;;;;;1.08;0.50;;;;;;;;;;4995956;28;20033;-74
2021/01/30 14:05:09;;;;;;;1.40;0.40;;;;;;;;;;4995707;28;20026;-74
2021/01/30 14:07:35;;;;;;;0.73;0.40;;;;;;;;;;4978439;28;20038;-74
2021/01/30 14:10:01;;;;;;;1.40;0.40;;;;;;;;;;4978592;28;20031;-74
2021/01/30 14:12:28;;;;;;;1.77;0.80;;;;;;;;;;4979066;28;20168;-74
2021/01/30 14:14:54;;;;;;;1.88;0.70;;;;;;;;;;4996202;28;20156;-74
2021/01/30 14:17:20;;;;;;;1.52;0.50;;;;;;;;;;4978595;28;20026;-74
2021/01/30 14:19:46;;;;;;;1.55;0.40;;;;;;;;;;4978346;28;20023;-74
2021/01/30 14:22:12;;;;;;;1.33;0.47;;;;;;;;;;4995791;28;20101;-74
2021/01/30 14:24:39;;;;;;;2.03;0.45;;;;;;;;;;4978527;28;20029;-74
2021/01/30 14:27:05;;;;;;;1.60;0.47;;;;;;;;;;4978363;28;20100;-74
2021/01/30 14:29:32;;;;;;;1.90;0.50;;;;;;;;;;4978625;28;20379;-73
2021/01/30 14:32:01;;;;;;;2.75;0.77;;;;;;;;;;4978042;28;20090;-73
2021/01/30 14:34:28;;;;;;;1.63;0.70;;;;;;;;;;4978049;28;20041;-75
2021/01/30 14:36:54;;;;;;;3.92;0.70;;;;;;;;;;4978226;28;20030;-74
2021/01/30 14:39:21;;;;;;;1.92;0.88;;;;;;;;;;4978242;28;20472;-77
2021/01/30 14:41:47;;;;;;;1.83;0.70;;;;;;;;;;4978324;28;20026;-75
2021/01/30 14:44:13;;;;;;;2.47;0.93;;;;;;;;;;4977803;28;20495;-76
2021/01/30 14:46:40;;;;;;;2.17;0.70;;;;;;;;;;4978141;28;20031;-76
2021/01/30 14:49:06;;;;;;;2.38;1.02;;;;;;;;;;4977854;28;20034;-74
2021/01/30 14:51:32;;;;;;;2.22;1.17;;;;;;;;;;4977979;28;20043;-76
2021/01/30 14:53:58;;;;;;;2.42;1.10;;;;;;;;;;4977835;28;20030;-74
2021/01/30 14:56:25;;;;;;;2.70;1.27;;;;;;;;;;4977848;28;20042;-76
2021/01/30 14:58:51;;;;;;;3.17;1.30;;;;;;;;;;4977741;28;20468;-73
2021/01/30 15:01:17;;;;;;;3.13;1.27;;;;;;;;;;4976053;28;20089;-80